Allakaket, Alaska
Current Conditions -  °F | °C
As of 11:53 AM on Sunday 21 Dec 2014 (Local Time) from PABT Reporting Station
Broken Clouds Broken Clouds  
Wind Chill: -13°   Ceiling: 14000
Heat Index: -3°   Visibility: 10mi
Dew Point: -9°   Wind: 5mph
Humidity: 75%   Direction: 360°N
Pressure: 29.37"   Gusts: NA
Location:  66.57°N, 152.65°W
Report Text: PABT 212053Z 36004KT 10SM FEW090 BKN140 M19/M23 A2937 RMK AO2 SLP970 T11941228 51015
Loading
Personal Weather Stations






























Interactive Weather Map New forecast layout! Learn more

10-Day Weather Forecast

Advertisements
Track Severe Weather on mobile